Terminal Aerodrome Forecast
Issued by NWS

Home | Current Version | Previous Version | Text Only | Print | Product List | Glossary On
Versions: 1 2 3 4 5 6 7 8 9 10 11 12 13 14
000
FTUS45 KRIW 182300
TAFBPI
TAF
KBPI 182320Z 1900/1924 VRB05KT P6SM SKC
     FM190600 34004KT P6SM VCFG FEW035
     FM191500 VRB04KT P6SM FEW040 SCT150
     FM192200 VRB03KT P6SM BKN050=

USA.gov is the U.S. government's official web portal to all federal, state and local government web resources and services.